Time;durP1;ratioP1;P1;durP2;ratioP2;P2;SDS_P1;SDS_P2;PMS_P1;PMS_P2;Temp;Humidity;BMP_temperature;BMP_pressure;BME280_temperature;BME280_humidity;BME280_pressure;Samples;Min_cycle;Max_cycle;Signal;HPM_P1;HPM_P2
2023/08/02 00:00:01;;;;;;;0.10;0.10;;;;;;;23.21;64.31;100275.41;5034254;28;20482;-88
2023/08/02 00:02:27;;;;;;;0.10;0.10;;;;;;;23.13;64.52;100273.56;5034175;28;20482;-88
2023/08/02 00:04:52;;;;;;;0.15;0.15;;;;;;;23.15;64.54;100278.69;5034043;28;20037;-89
2023/08/02 00:07:17;;;;;;;0.10;0.10;;;;;;;23.26;63.96;100288.91;5034127;28;20478;-90
2023/08/02 00:09:43;;;;;;;0.10;0.10;;;;;;;23.20;64.26;100276.38;5033847;28;20379;-87
2023/08/02 00:12:09;;;;;;;0.10;0.10;;;;;;;23.23;64.36;100291.06;5050450;28;20029;-89
2023/08/02 00:14:34;;;;;;;0.10;0.10;;;;;;;23.13;64.52;100273.56;5033705;28;20486;-87
2023/08/02 00:17:00;;;;;;;0.10;0.10;;;;;;;23.12;64.41;100274.56;5050297;28;20482;-88
2023/08/02 00:19:25;;;;;;;0.10;0.10;;;;;;;23.16;64.15;100278.50;5033849;28;20387;-88
2023/08/02 00:21:50;;;;;;;0.10;0.10;;;;;;;23.16;64.30;100278.50;5033652;28;20049;-88
2023/08/02 00:24:16;;;;;;;0.10;0.10;;;;;;;23.13;64.21;100284.13;5033827;28;20024;-87
2023/08/02 00:26:41;;;;;;;0.10;0.10;;;;;;;23.09;64.41;100289.88;5049878;28;20032;-87
2023/08/02 00:29:07;;;;;;;0.10;0.10;;;;;;;23.02;64.08;100276.53;5050452;28;20540;-89
2023/08/02 00:31:32;;;;;;;0.10;0.10;;;;;;;23.05;64.47;100291.22;5049898;28;20055;-87
2023/08/02 00:33:58;;;;;;;0.10;0.10;;;;;;;23.01;64.49;100295.16;5050449;28;20033;-89
2023/08/02 00:36:23;;;;;;;0.10;0.10;;;;;;;22.86;64.90;100289.69;5050136;28;20033;-87
2023/08/02 00:38:49;;;;;;;0.10;0.10;;;;;;;22.79;65.13;100286.84;5050158;28;20033;-87
2023/08/02 00:41:14;;;;;;;0.10;0.10;;;;;;;22.79;65.60;100291.31;5030814;28;20029;-87
2023/08/02 00:43:40;;;;;;;0.10;0.10;;;;;;;22.86;65.61;100289.69;5033286;28;20036;-88
2023/08/02 00:46:07;;;;;;;0.10;0.10;;;;;;;22.77;65.53;100274.81;5066833;28;20079;-88
2023/08/02 00:48:33;;;;;;;0.10;0.10;;;;;;;22.81;65.88;100292.81;5033174;28;20044;-88
2023/08/02 00:50:58;;;;;;;0.10;0.10;;;;;;;22.77;66.12;100299.38;5033213;28;20039;-88
2023/08/02 00:53:24;;;;;;;0.10;0.10;;;;;;;22.71;66.58;100292.09;5049903;28;20028;-87
2023/08/02 00:55:50;;;;;;;0.17;0.17;;;;;;;22.82;66.64;100294.47;5049312;28;20037;-88
2023/08/02 00:58:15;;;;;;;0.10;0.10;;;;;;;22.78;66.58;100293.13;5049853;28;20029;-87
2023/08/02 01:00:41;;;;;;;0.10;0.10;;;;;;;22.70;67.29;100297.53;5033165;28;20525;-87
2023/08/02 01:03:06;;;;;;;0.20;0.20;;;;;;;22.59;67.84;100291.59;5033110;28;20036;-86
2023/08/02 01:05:34;;;;;;;0.10;0.10;;;;;;;22.60;67.71;100298.50;5049832;28;20025;-87
2023/08/02 01:08:02;;;;;;;0.10;0.10;;;;;;;22.46;68.03;100295.66;5049561;28;20029;-87
2023/08/02 01:10:54;;;;;;;0.10;0.10;;;;;;;22.46;68.14;100301.75;5049278;28;20036;-90
2023/08/02 01:13:19;;;;;;;;;;;;;;;22.49;68.36;100301.44;5041835;28;20041;-87
2023/08/02 01:15:45;;;;;;;0.10;0.10;;;;;;;22.44;68.46;100295.00;5049324;28;19923;-87
2023/08/02 01:18:10;;;;;;;0.10;0.10;;;;;;;22.38;68.56;100301.72;5032837;28;20120;-87
2023/08/02 01:20:36;;;;;;;0.10;0.10;;;;;;;22.30;69.12;100306.97;5049358;28;20032;-88
2023/08/02 01:23:01;;;;;;;0.10;0.10;;;;;;;22.35;68.34;100277.50;5049223;28;20143;-90
2023/08/02 01:25:27;;;;;;;0.10;0.10;;;;;;;22.51;68.29;100304.72;5032474;28;20029;-88
2023/08/02 01:28:06;;;;;;;0.10;0.10;;;;;;;22.47;68.36;100287.59;5049711;28;20458;-87
2023/08/02 01:30:36;;;;;;;0.10;0.10;;;;;;;22.47;68.16;100290.22;5032408;28;20021;-87
2023/08/02 01:33:01;;;;;;;0.10;0.10;;;;;;;22.48;68.47;100293.69;5032943;28;20025;-87
2023/08/02 01:35:27;;;;;;;0.10;0.10;;;;;;;22.52;68.22;100289.78;5032488;28;20074;-88
2023/08/02 01:37:53;;;;;;;0.10;0.10;;;;;;;22.57;68.43;100295.38;5048962;28;20043;-89
2023/08/02 01:40:18;;;;;;;0.10;0.10;;;;;;;22.66;68.31;100306.78;5031768;28;20025;-88
2023/08/02 01:42:44;;;;;;;0.10;0.10;;;;;;;22.66;67.81;100297.03;5029934;28;20052;-87
2023/08/02 01:45:10;;;;;;;0.13;0.13;;;;;;;22.74;67.40;100301.53;5049243;28;20025;-87
2023/08/02 01:47:35;;;;;;;0.10;0.10;;;;;;;22.87;67.47;100291.34;5032379;28;20057;-88
2023/08/02 01:50:01;;;;;;;0.10;0.10;;;;;;;22.85;67.08;100285.41;5032480;28;20032;-87
2023/08/02 01:52:26;;;;;;;0.20;0.20;;;;;;;22.88;66.54;100291.19;5048904;28;20052;-86
2023/08/02 01:54:52;;;;;;;0.10;0.10;;;;;;;22.93;66.71;100290.72;5048864;28;20037;-87
2023/08/02 01:57:17;;;;;;;0.10;0.10;;;;;;;22.83;66.31;100280.28;5032439;28;20032;-86
2023/08/02 01:59:42;;;;;;;0.10;0.10;;;;;;;22.92;66.54;100289.06;5048870;28;20406;-89
2023/08/02 02:02:08;;;;;;;0.10;0.10;;;;;;;22.95;66.40;100298.47;5048897;28;20036;-87
2023/08/02 02:04:33;;;;;;;0.10;0.10;;;;;;;22.93;66.31;100295.16;5049150;28;20075;-87
2023/08/02 02:06:59;;;;;;;0.10;0.10;;;;;;;22.91;66.25;100297.97;5049096;28;20037;-87
2023/08/02 02:09:24;;;;;;;0.10;0.10;;;;;;;22.90;66.37;100307.66;5032075;28;20024;-89
2023/08/02 02:11:50;;;;;;;0.10;0.10;;;;;;;22.86;66.87;100302.88;5049025;28;20395;-87
2023/08/02 02:14:15;;;;;;;0.10;0.10;;;;;;;22.84;66.88;100315.41;5048563;28;20414;-87
2023/08/02 02:16:41;;;;;;;0.10;0.10;;;;;;;22.75;67.41;100311.91;5048736;28;20028;-88
2023/08/02 02:19:06;;;;;;;0.10;0.10;;;;;;;22.63;67.30;100288.66;5032183;28;20099;-87
2023/08/02 02:21:31;;;;;;;0.10;0.10;;;;;;;22.70;67.34;100303.63;5031937;28;20052;-87
2023/08/02 02:23:57;;;;;;;0.10;0.10;;;;;;;22.79;67.04;100307.13;5048827;28;20482;-88
2023/08/02 02:26:26;;;;;;;0.10;0.10;;;;;;;22.80;67.32;100309.59;5032157;28;20140;-87
2023/08/02 02:28:51;;;;;;;0.10;0.10;;;;;;;22.83;66.75;100300.56;5048818;28;20025;-89
2023/08/02 02:31:16;;;;;;;0.10;0.10;;;;;;;22.84;66.45;100302.22;5048699;28;20098;-89
2023/08/02 02:33:42;;;;;;;0.10;0.10;;;;;;;22.90;66.32;100327.94;5048632;28;20036;-88
2023/08/02 02:36:07;;;;;;;0.10;0.10;;;;;;;22.77;66.57;100317.84;5048603;28;20671;-86
2023/08/02 02:38:33;;;;;;;0.10;0.10;;;;;;;22.69;67.15;100322.25;5031719;28;20486;-87
2023/08/02 02:40:58;;;;;;;0.10;0.10;;;;;;;22.62;66.90;100316.81;5031829;28;20406;-87
2023/08/02 02:43:27;;;;;;;0.10;0.10;;;;;;;22.74;66.97;100335.81;5012893;28;20060;-87
2023/08/02 02:45:52;;;;;;;0.20;0.20;;;;;;;22.73;66.73;100326.25;5048315;28;20563;-88
2023/08/02 02:48:18;;;;;;;0.10;0.10;;;;;;;22.67;67.07;100327.69;5032052;28;20036;-89
2023/08/02 02:50:43;;;;;;;0.10;0.10;;;;;;;22.77;67.26;100335.47;5033702;28;20486;-88
2023/08/02 02:53:09;;;;;;;0.10;0.10;;;;;;;22.71;67.11;100322.91;5035230;28;20021;-88
2023/08/02 02:55:34;;;;;;;0.20;0.20;;;;;;;22.77;66.75;100331.03;5051805;28;20021;-85
2023/08/02 02:57:59;;;;;;;0.10;0.10;;;;;;;22.80;66.78;100324.59;5052411;28;20025;-91
2023/08/02 03:00:25;;;;;;;0.10;0.10;;;;;;;22.80;66.94;100340.41;5052226;28;20033;-89
2023/08/02 03:02:51;;;;;;;0.20;0.20;;;;;;;22.83;66.71;100340.13;5035627;28;20498;-89
2023/08/02 03:05:16;;;;;;;0.10;0.10;;;;;;;22.72;66.80;100328.06;5051862;28;20033;-90
2023/08/02 03:07:42;;;;;;;0.10;0.10;;;;;;;22.72;66.80;100332.50;5051746;28;20483;-90
2023/08/02 03:10:08;;;;;;;0.20;0.20;;;;;;;22.68;66.67;100325.88;5052032;28;20094;-88
2023/08/02 03:12:33;;;;;;;0.10;0.10;;;;;;;22.70;66.96;100345.00;5035239;28;20021;-89
2023/08/02 03:14:58;;;;;;;0.10;0.10;;;;;;;22.65;67.42;100347.31;5035481;28;20025;-90
2023/08/02 03:17:24;;;;;;;0.20;0.20;;;;;;;22.75;67.07;100359.38;5035240;28;20475;-88
2023/08/02 03:19:49;;;;;;;0.10;0.10;;;;;;;22.70;67.12;100347.63;5067727;28;20055;-88
2023/08/02 03:22:15;;;;;;;0.10;0.10;;;;;;;22.70;66.90;100358.19;5034318;28;20052;-87
2023/08/02 03:24:40;;;;;;;0.10;0.10;;;;;;;22.52;66.71;100338.03;5034676;28;20255;-86
2023/08/02 03:27:06;;;;;;;0.17;0.17;;;;;;;22.54;66.22;100317.63;5034580;28;20063;-88
2023/08/02 03:29:31;;;;;;;0.10;0.10;;;;;;;22.72;66.59;100353.59;5034968;28;20021;-88
2023/08/02 03:31:57;;;;;;;0.10;0.10;;;;;;;22.72;67.09;100354.44;5050417;28;20032;-86
2023/08/02 03:34:22;;;;;;;0.10;0.10;;;;;;;22.65;66.24;100353.41;5052558;28;20029;-86
2023/08/02 03:36:47;;;;;;;0.10;0.10;;;;;;;22.67;66.32;100355.88;5050859;28;20029;-87
2023/08/02 03:39:13;;;;;;;0.10;0.10;;;;;;;22.53;67.05;100344.97;5051198;28;20032;-85
2023/08/02 03:41:38;;;;;;;0.10;0.10;;;;;;;22.66;66.51;100370.03;5031928;28;20155;-85
2023/08/02 03:44:04;;;;;;;0.10;0.10;;;;;;;22.59;66.99;100368.03;5034548;28;20029;-85
2023/08/02 03:46:29;;;;;;;0.10;0.10;;;;;;;22.56;66.73;100349.91;5034827;28;20025;-86
2023/08/02 03:48:55;;;;;;;0.10;0.10;;;;;;;22.65;66.40;100368.41;5034357;28;20052;-86
2023/08/02 03:51:20;;;;;;;0.10;0.10;;;;;;;22.72;66.28;100379.97;5050557;28;20032;-87
2023/08/02 03:53:46;;;;;;;0.10;0.10;;;;;;;22.80;66.42;100387.88;5016946;28;20033;-87
2023/08/02 03:56:11;;;;;;;0.10;0.10;;;;;;;22.71;65.89;100379.13;5017313;28;20414;-86
2023/08/02 03:58:37;;;;;;;0.10;0.10;;;;;;;22.69;66.03;100383.72;5034078;28;20509;-87
2023/08/02 04:01:02;;;;;;;0.10;0.10;;;;;;;22.81;65.57;100402.72;5033958;28;20430;-87
2023/08/02 04:03:27;;;;;;;0.17;0.17;;;;;;;22.51;66.12;100375.91;5033724;28;20060;-87
2023/08/02 04:05:53;;;;;;;0.10;0.10;;;;;;;22.67;66.47;100398.06;5033616;28;20025;-88
2023/08/02 04:08:18;;;;;;;0.20;0.20;;;;;;;22.20;67.28;100364.22;5034480;28;20058;-85
2023/08/02 04:10:44;;;;;;;0.10;0.10;;;;;;;22.51;67.14;100398.81;5039652;28;20016;-85
2023/08/02 04:13:09;;;;;;;0.20;0.20;;;;;;;22.53;67.04;100402.97;5053496;28;20494;-88
2023/08/02 04:15:35;;;;;;;0.10;0.10;;;;;;;22.52;66.93;100398.69;5030465;28;20025;-88
2023/08/02 04:18:02;;;;;;;0.10;0.10;;;;;;;22.49;67.78;100396.34;5032467;28;20041;-90
2023/08/02 04:20:28;;;;;;;0.15;0.15;;;;;;;22.64;66.99;100401.03;5045656;28;20036;-94
2023/08/02 04:22:54;;;;;;;0.10;0.10;;;;;;;22.58;66.75;100395.38;5001270;28;20046;-90
2023/08/02 04:25:19;;;;;;;0.10;0.10;;;;;;;22.68;66.71;100399.72;5032948;28;20036;-92
2023/08/02 04:27:45;;;;;;;0.10;0.10;;;;;;;22.70;66.27;100408.28;5034544;28;20135;-92
2023/08/02 04:30:11;;;;;;;0.20;0.20;;;;;;;22.71;65.83;100399.38;5035659;28;20021;-86
2023/08/02 04:32:36;;;;;;;0.10;0.10;;;;;;;22.79;65.57;100409.97;5066470;28;20116;-87
2023/08/02 04:35:02;;;;;;;0.10;0.10;;;;;;;22.73;65.38;100402.72;5050227;28;20037;-86
2023/08/02 04:37:28;;;;;;;0.10;0.10;;;;;;;22.71;64.96;100415.22;5030789;28;20029;-87
2023/08/02 04:39:54;;;;;;;0.10;0.10;;;;;;;22.69;66.09;100409.28;5013699;28;20107;-88
2023/08/02 04:42:19;;;;;;;0.10;0.10;;;;;;;22.66;65.10;100404.31;5028415;28;20515;-93
2023/08/02 04:44:44;;;;;;;0.13;0.13;;;;;;;22.71;65.06;100412.56;5033987;28;20067;-86
2023/08/02 04:47:10;;;;;;;0.10;0.10;;;;;;;22.71;65.03;100402.84;5050333;28;20445;-86
2023/08/02 04:49:36;;;;;;;0.10;0.10;;;;;;;22.66;65.26;100412.22;5049586;28;20032;-91
2023/08/02 04:52:02;;;;;;;0.10;0.10;;;;;;;22.76;65.86;100423.47;5070454;22;20064;-94
2023/08/02 04:54:27;;;;;;;0.10;0.10;;;;;;;22.72;65.62;100416.88;5090046;28;20032;-91
2023/08/02 04:56:53;;;;;;;0.10;0.10;;;;;;;22.75;65.60;100419.19;5081295;28;20036;-93
2023/08/02 04:59:18;;;;;;;0.10;0.10;;;;;;;22.91;65.69;100406.13;5073381;28;20032;-91
2023/08/02 05:01:44;;;;;;;0.10;0.10;;;;;;;23.23;64.50;100393.97;5081502;28;20021;-91
2023/08/02 05:04:09;;;;;;;0.10;0.10;;;;;;;23.35;64.20;100413.78;5050667;28;20029;-89
2023/08/02 05:06:35;;;;;;;0.20;0.20;;;;;;;23.33;63.85;100421.06;5063992;28;20032;-87
2023/08/02 05:09:04;;;;;;;0.10;0.10;;;;;;;23.43;63.74;100411.16;5031651;28;20025;-86
2023/08/02 05:11:31;;;;;;;0.20;0.20;;;;;;;23.55;63.71;100419.59;5019651;28;20029;-92
2023/08/02 05:13:57;;;;;;;0.17;0.17;;;;;;;23.69;62.71;100421.59;5035129;28;20107;-93
2023/08/02 05:16:23;;;;;;;0.10;0.10;;;;;;;23.57;62.53;100439.56;5033692;28;20037;-91
2023/08/02 05:18:48;;;;;;;0.20;0.20;;;;;;;23.46;62.58;100421.41;5050412;28;20025;-89
2023/08/02 05:21:15;;;;;;;0.10;0.10;;;;;;;23.58;62.88;100430.63;5049153;28;20032;-86
2023/08/02 05:23:41;;;;;;;0.10;0.10;;;;;;;23.52;62.86;100418.09;5049079;28;20067;-86
2023/08/02 05:26:06;;;;;;;0.10;0.10;;;;;;;23.55;63.46;100436.25;5032619;28;20036;-90
2023/08/02 05:28:32;;;;;;;0.10;0.10;;;;;;;23.44;64.13;100439.22;5016140;28;20041;-86
2023/08/02 05:30:57;;;;;;;0.10;0.10;;;;;;;23.45;63.94;100422.38;5034555;28;20044;-87
2023/08/02 05:33:23;;;;;;;0.15;0.15;;;;;;;23.59;64.03;100439.41;5027541;28;20486;-90
2023/08/02 05:35:48;;;;;;;0.10;0.10;;;;;;;23.63;62.83;100436.31;5069850;28;20090;-87
2023/08/02 05:38:14;;;;;;;0.20;0.20;;;;;;;23.64;63.31;100435.31;5056151;28;20044;-92
2023/08/02 05:40:39;;;;;;;0.20;0.20;;;;;;;23.86;62.55;100443.56;5011862;28;20040;-91
2023/08/02 05:43:06;;;;;;;0.10;0.10;;;;;;;23.96;62.75;100452.97;5027884;28;20053;-88
2023/08/02 05:45:31;;;;;;;0.20;0.20;;;;;;;23.94;62.56;100452.31;5013674;28;20033;-92
2023/08/02 05:47:57;;;;;;;0.20;0.20;;;;;;;23.92;62.60;100459.59;5004061;28;20521;-87
2023/08/02 05:50:23;;;;;;;0.10;0.10;;;;;;;23.98;62.22;100464.19;5067340;28;20078;-88
2023/08/02 05:52:48;;;;;;;0.10;0.10;;;;;;;23.99;62.40;100478.22;5049192;28;20040;-92
2023/08/02 05:55:14;;;;;;;0.20;0.20;;;;;;;24.03;62.54;100490.13;5053728;28;20029;-91
2023/08/02 05:57:40;;;;;;;0.10;0.10;;;;;;;24.09;62.20;100483.34;5055102;28;20048;-93
2023/08/02 06:00:07;;;;;;;0.10;0.10;;;;;;;24.03;62.29;100480.38;5058741;28;20032;-91
2023/08/02 06:02:33;;;;;;;0.10;0.10;;;;;;;24.15;61.87;100480.88;5048299;28;20584;-91
2023/08/02 06:04:58;;;;;;;0.10;0.10;;;;;;;24.33;61.67;100477.25;5018373;28;20037;-87
2023/08/02 06:07:23;;;;;;;0.20;0.20;;;;;;;24.37;61.28;100474.09;5051279;28;20029;-88
2023/08/02 06:09:49;;;;;;;0.20;0.20;;;;;;;24.38;61.50;100470.47;5070185;28;20039;-92
2023/08/02 06:12:15;;;;;;;0.10;0.10;;;;;;;24.51;58.98;100456.72;5054589;28;20036;-87
2023/08/02 06:14:41;;;;;;;0.10;0.10;;;;;;;24.70;58.87;100479.34;5052196;28;20063;-86
2023/08/02 06:17:06;;;;;;;0.20;0.20;;;;;;;24.73;58.13;100471.03;5069388;28;20032;-87
2023/08/02 06:19:57;;;;;;;0.20;0.20;;;;;;;24.73;58.63;100474.50;5063621;28;20028;-93
2023/08/02 06:22:22;;;;;;;0.20;0.20;;;;;;;24.81;57.81;100471.84;5035772;28;20033;-89
2023/08/02 06:24:51;;;;;;;0.10;0.10;;;;;;;25.05;57.54;100492.09;5086790;28;20426;-90
2023/08/02 06:27:16;;;;;;;0.20;0.20;;;;;;;25.13;57.08;100485.97;5070513;28;20498;-91
2023/08/02 06:29:41;;;;;;;0.10;0.10;;;;;;;25.36;57.30;100480.69;5034024;28;20096;-89
2023/08/02 06:32:07;;;;;;;0.20;0.20;;;;;;;25.40;56.88;100477.53;5016871;28;20099;-88
2023/08/02 06:35:09;;;;;;;0.10;0.10;;;;;;;25.76;56.50;100492.06;5040016;28;20028;-94
2023/08/02 06:37:35;;;;;;;0.10;0.10;;;;;;;25.82;54.53;100496.66;4974754;28;20416;-91
2023/08/02 06:40:00;;;;;;;0.20;0.20;;;;;;;25.74;54.45;100473.69;5004192;28;20077;-91
2023/08/02 06:42:29;;;;;;;0.20;0.20;;;;;;;25.94;54.40;100480.16;5014891;28;20080;-91
2023/08/02 06:44:57;;;;;;;0.20;0.20;;;;;;;25.91;54.71;100491.13;5056413;28;20033;-93
2023/08/02 06:47:22;;;;;;;0.20;0.20;;;;;;;26.10;54.44;100489.00;5067517;28;20508;-91
2023/08/02 06:49:48;;;;;;;0.20;0.20;;;;;;;26.23;53.77;100486.53;5066901;28;20040;-88
2023/08/02 06:52:13;;;;;;;0.20;0.20;;;;;;;26.40;54.13;100490.72;5060102;28;20074;-94
2023/08/02 06:54:39;;;;;;;0.20;0.20;;;;;;;26.41;53.13;100500.31;5060096;28;20043;-92
2023/08/02 06:57:04;;;;;;;0.10;0.10;;;;;;;26.37;53.47;100496.41;5044475;28;20040;-88
2023/08/02 06:59:30;;;;;;;0.20;0.20;;;;;;;26.39;52.87;100494.38;5068808;28;20120;-86
2023/08/02 07:01:56;;;;;;;0.20;0.20;;;;;;;26.29;53.64;100507.88;5052475;28;20025;-92
2023/08/02 07:04:24;;;;;;;0.10;0.10;;;;;;;26.31;53.96;100507.69;5035852;28;20387;-93
2023/08/02 07:06:49;;;;;;;0.10;0.10;;;;;;;26.43;53.25;100510.75;5035330;28;20029;-92
2023/08/02 07:09:15;;;;;;;0.10;0.10;;;;;;;26.19;54.68;100517.09;5035608;28;20036;-92
2023/08/02 07:11:40;;;;;;;0.20;0.20;;;;;;;26.21;54.78;100510.59;5052346;28;20036;-91
2023/08/02 07:14:06;;;;;;;0.10;0.10;;;;;;;26.16;55.15;100506.84;5034592;28;20033;-86
2023/08/02 07:16:31;;;;;;;0.20;0.20;;;;;;;26.23;54.95;100518.38;5068804;28;20033;-90
2023/08/02 07:18:57;;;;;;;0.20;0.20;;;;;;;26.14;55.77;100512.31;5050734;28;20093;-88
2023/08/02 07:21:22;;;;;;;0.10;0.10;;;;;;;26.22;55.70;100522.84;5052251;28;20032;-91
2023/08/02 07:23:47;;;;;;;0.10;0.10;;;;;;;26.10;55.54;100507.56;5051752;28;20033;-84
2023/08/02 07:26:13;;;;;;;0.10;0.10;;;;;;;26.10;55.83;100499.59;5068512;28;20039;-87
2023/08/02 07:28:38;;;;;;;0.20;0.20;;;;;;;26.23;55.50;100510.41;5058341;28;20035;-92
2023/08/02 07:31:13;;;;;;;0.10;0.10;;;;;;;26.27;55.27;100501.94;5069987;28;20033;-93
2023/08/02 07:33:39;;;;;;;0.20;0.20;;;;;;;26.41;55.42;100513.59;5042847;28;20057;-87
2023/08/02 07:36:05;;;;;;;0.22;0.20;;;;;;;26.44;54.72;100512.41;5030870;28;20029;-89
2023/08/02 07:38:30;;;;;;;0.13;0.13;;;;;;;26.54;54.89;100520.91;5065150;28;20475;-86
2023/08/02 07:40:56;;;;;;;0.20;0.20;;;;;;;26.57;55.12;100539.97;5063731;28;20032;-93
2023/08/02 07:43:21;;;;;;;0.10;0.10;;;;;;;26.73;55.27;100527.53;5053352;28;20049;-93
2023/08/02 07:45:47;;;;;;;0.20;0.20;;;;;;;26.94;54.28;100546.22;5074087;28;20028;-92
2023/08/02 07:48:12;;;;;;;0.20;0.20;;;;;;;26.90;52.43;100529.00;5070961;28;20086;-91
2023/08/02 07:50:39;;;;;;;0.20;0.20;;;;;;;26.99;52.35;100537.69;5055998;28;20029;-90
2023/08/02 07:53:05;;;;;;;0.10;0.10;;;;;;;27.03;52.97;100552.25;5068446;28;20049;-92
2023/08/02 07:55:30;;;;;;;0.10;0.10;;;;;;;26.98;53.42;100536.88;5077835;22;20063;-91
2023/08/02 07:57:55;;;;;;;0.20;0.20;;;;;;;27.05;52.42;100526.38;5057522;28;20024;-88
2023/08/02 08:00:21;;;;;;;0.20;0.20;;;;;;;27.05;52.90;100511.28;5082521;28;20036;-85
2023/08/02 08:02:47;;;;;;;0.20;0.20;;;;;;;27.22;52.27;100535.75;5054322;28;20116;-89
2023/08/02 08:05:12;;;;;;;0.20;0.20;;;;;;;27.31;52.74;100547.13;5071173;28;20048;-92
2023/08/02 08:07:37;;;;;;;0.20;0.20;;;;;;;27.16;52.62;100539.19;5055976;28;20036;-87
2023/08/02 08:10:03;;;;;;;0.20;0.20;;;;;;;27.47;51.71;100544.25;5087115;28;20402;-90
2023/08/02 08:12:29;;;;;;;0.20;0.20;;;;;;;27.59;51.69;100542.75;5076506;28;20028;-90
2023/08/02 08:14:57;;;;;;;0.20;0.20;;;;;;;27.53;49.97;100527.56;5105679;22;20758;-90
2023/08/02 08:17:22;;;;;;;0.10;0.10;;;;;;;27.74;48.77;100541.91;5002031;28;20029;-85
2023/08/02 08:19:49;;;;;;;0.20;0.20;;;;;;;27.85;49.39;100560.03;5052503;28;20087;-90
2023/08/02 08:22:15;;;;;;;0.20;0.20;;;;;;;27.87;50.63;100555.34;5018065;28;20036;-91
2023/08/02 08:24:40;;;;;;;0.10;0.10;;;;;;;27.86;50.09;100565.16;5012238;28;20032;-90
2023/08/02 08:27:06;;;;;;;0.10;0.10;;;;;;;27.85;50.28;100570.66;5025599;28;20417;-90
2023/08/02 08:29:31;;;;;;;0.20;0.20;;;;;;;27.94;50.27;100569.53;5007897;28;20032;-92
2023/08/02 08:31:57;;;;;;;0.10;0.10;;;;;;;27.93;49.79;100573.19;4999092;28;20040;-91
2023/08/02 08:34:22;;;;;;;0.13;0.13;;;;;;;27.96;49.52;100580.78;5010660;28;20178;-88
2023/08/02 08:36:48;;;;;;;0.20;0.20;;;;;;;27.71;50.13;100573.16;5020374;28;20029;-88
2023/08/02 08:39:13;;;;;;;0.20;0.20;;;;;;;27.54;49.73;100579.69;5026526;28;20399;-89
2023/08/02 08:41:39;;;;;;;0.10;0.10;;;;;;;27.30;50.12;100582.66;4997933;28;20041;-91
2023/08/02 08:44:04;;;;;;;0.20;0.20;;;;;;;27.19;50.67;100585.78;4996497;28;20107;-90
2023/08/02 08:46:49;;;;;;;0.17;0.17;;;;;;;27.11;50.36;100579.53;5002107;28;20021;-89
2023/08/02 08:49:15;;;;;;;0.10;0.10;;;;;;;27.02;50.45;100585.97;5016378;28;20099;-89
2023/08/02 08:51:42;;;;;;;0.20;0.20;;;;;;;26.92;51.35;100590.69;5000901;28;20037;-85
2023/08/02 08:54:17;;;;;;;0.10;0.10;;;;;;;26.81;49.79;100572.56;5022612;28;20048;-88
2023/08/02 08:56:42;;;;;;;0.10;0.10;;;;;;;26.69;50.31;100595.25;5020656;28;20111;-89
2023/08/02 08:59:08;;;;;;;0.10;0.10;;;;;;;26.57;49.52;100582.41;5020823;28;20028;-88
2023/08/02 09:01:34;;;;;;;0.20;0.20;;;;;;;26.63;49.43;100599.44;5054100;28;20081;-91
2023/08/02 09:03:59;;;;;;;0.17;0.17;;;;;;;26.51;50.33;100612.31;5016803;28;20025;-91
2023/08/02 09:06:25;;;;;;;0.20;0.20;;;;;;;26.50;49.54;100600.03;5015591;28;20480;-91
2023/08/02 09:08:51;;;;;;;0.10;0.10;;;;;;;26.42;50.44;100604.59;5021178;28;20105;-88
2023/08/02 09:11:16;;;;;;;0.10;0.10;;;;;;;26.47;50.65;100612.84;5036889;28;20032;-90
2023/08/02 09:13:42;;;;;;;0.20;0.20;;;;;;;26.45;50.03;100614.84;5039345;28;20028;-93
2023/08/02 09:16:15;;;;;;;0.10;0.10;;;;;;;26.39;50.24;100626.19;5020446;28;20053;-93
2023/08/02 09:18:45;;;;;;;0.20;0.20;;;;;;;26.68;49.92;100625.44;5034273;28;20452;-90
2023/08/02 09:21:14;;;;;;;0.20;0.20;;;;;;;26.72;50.65;100621.41;5049738;28;20552;-85
2023/08/02 09:23:39;;;;;;;0.10;0.10;;;;;;;26.70;49.62;100602.19;5050305;28;20029;-88
2023/08/02 09:26:17;;;;;;;0.20;0.20;;;;;;;26.77;50.06;100619.88;5055920;28;20017;-91
2023/08/02 09:29:04;;;;;;;0.10;0.10;;;;;;;27.14;50.21;100631.50;5092420;22;20591;-91
2023/08/02 09:31:31;;;;;;;0.20;0.20;;;;;;;27.35;49.66;100606.84;5149544;22;20044;-94
2023/08/02 09:33:57;;;;;;;0.20;0.20;;;;;;;27.36;49.32;100629.75;5022054;28;20052;-94
2023/08/02 09:36:23;;;;;;;0.20;0.20;;;;;;;27.55;49.37;100628.34;5005899;28;20040;-94
2023/08/02 09:38:55;;;;;;;0.20;0.20;;;;;;;27.57;49.57;100634.28;5032458;28;20028;-88
2023/08/02 09:41:22;;;;;;;0.20;0.20;;;;;;;27.59;49.07;100625.13;5016473;28;20423;-89
2023/08/02 09:43:47;;;;;;;0.20;0.20;;;;;;;27.63;48.05;100631.72;4981722;28;20056;-91
2023/08/02 09:46:34;;;;;;;0.20;0.20;;;;;;;27.53;47.98;100625.88;5021863;28;20029;-88
2023/08/02 09:49:00;;;;;;;0.20;0.20;;;;;;;27.57;48.39;100635.13;5021577;28;20031;-89
2023/08/02 09:51:42;;;;;;;0.10;0.10;;;;;;;27.49;47.32;100634.38;5035868;28;20031;-92
2023/08/02 09:54:11;;;;;;;0.10;0.10;;;;;;;27.45;47.52;100639.25;5035609;28;20054;-91
2023/08/02 09:56:37;;;;;;;0.10;0.10;;;;;;;27.36;48.62;100635.88;5019471;28;20040;-88
2023/08/02 09:59:03;;;;;;;0.10;0.10;;;;;;;27.36;49.68;100645.69;5052497;28;20021;-92
2023/08/02 10:01:30;;;;;;;0.10;0.10;;;;;;;27.30;48.18;100641.09;5040266;28;20021;-92
2023/08/02 10:03:57;;;;;;;0.10;0.10;;;;;;;27.32;47.96;100649.69;5024287;28;20024;-91
2023/08/02 10:06:37;;;;;;;0.10;0.10;;;;;;;27.28;48.38;100640.44;5040047;28;20051;-93
2023/08/02 10:09:08;;;;;;;0.10;0.10;;;;;;;27.38;48.32;100657.75;5022925;28;20035;-91
2023/08/02 10:11:39;;;;;;;0.20;0.20;;;;;;;27.08;49.73;100648.13;5023231;28;20433;-91
2023/08/02 10:14:04;;;;;;;0.10;0.10;;;;;;;27.06;49.21;100656.28;5023726;28;20029;-89
2023/08/02 10:19:01;;;;;;;0.10;0.10;;;;;;;26.95;50.11;100654.03;5038312;28;20057;-93
2023/08/02 10:21:27;;;;;;;0.20;0.20;;;;;;;26.95;50.30;100647.91;5017883;28;20025;-91
2023/08/02 10:23:52;;;;;;;0.10;0.10;;;;;;;26.93;49.88;100660.53;5031215;28;20498;-89
2023/08/02 10:26:18;;;;;;;0.10;0.10;;;;;;;26.87;49.83;100662.09;5019915;28;20033;-90
2023/08/02 10:28:43;;;;;;;0.10;0.10;;;;;;;26.64;50.19;100645.34;5021700;28;20029;-84
2023/08/02 10:31:09;;;;;;;0.20;0.20;;;;;;;26.79;50.69;100656.84;5015595;28;20033;-94
2023/08/02 10:36:15;;;;;;;0.20;0.20;;;;;;;26.86;50.29;100625.94;5093122;22;20057;-90
2023/08/02 10:38:47;;;;;;;0.10;0.10;;;;;;;27.18;49.64;100658.50;5019817;28;20032;-93
2023/08/02 10:41:17;;;;;;;0.20;0.20;;;;;;;27.11;49.59;100648.59;5057913;28;20036;-93
2023/08/02 10:43:54;;;;;;;0.10;0.10;;;;;;;27.18;48.18;100650.53;5005076;28;20049;-90
2023/08/02 10:46:21;;;;;;;0.10;0.10;;;;;;;27.03;48.00;100653.16;5075621;28;20513;-93
2023/08/02 10:48:46;;;;;;;0.10;0.10;;;;;;;27.01;47.99;100658.63;5042616;28;20025;-90
2023/08/02 10:51:27;;;;;;;0.10;0.10;;;;;;;26.99;49.13;100655.31;5003234;28;20167;-92
2023/08/02 10:54:25;;;;;;;0.10;0.10;;;;;;;26.94;48.80;100668.34;5050086;28;20040;-92
2023/08/02 10:56:51;;;;;;;0.20;0.20;;;;;;;26.76;49.50;100649.25;5042838;28;20119;-87
2023/08/02 10:59:47;;;;;;;0.20;0.20;;;;;;;27.11;48.81;100656.56;5056484;28;20112;-89
2023/08/02 11:02:12;;;;;;;0.20;0.20;;;;;;;27.23;48.67;100650.78;5030134;28;20049;-89
2023/08/02 11:04:43;;;;;;;0.20;0.20;;;;;;;27.54;48.27;100648.78;5034803;28;20032;-86
2023/08/02 11:07:13;;;;;;;0.20;0.20;;;;;;;27.53;46.31;100627.69;5034963;28;20033;-88
2023/08/02 11:09:39;;;;;;;0.20;0.20;;;;;;;27.70;46.43;100631.81;5001862;28;20060;-87
2023/08/02 11:12:09;;;;;;;0.20;0.20;;;;;;;27.84;45.71;100630.16;5018282;28;20064;-88
2023/08/02 11:14:36;;;;;;;0.20;0.20;;;;;;;28.07;46.63;100633.47;5022941;28;20063;-93
2023/08/02 11:17:01;;;;;;;0.20;0.20;;;;;;;28.38;45.88;100637.69;5026037;28;20033;-91
2023/08/02 11:19:29;;;;;;;0.20;0.20;;;;;;;28.39;45.32;100631.34;5022323;28;20116;-90
2023/08/02 11:21:55;;;;;;;0.20;0.20;;;;;;;28.43;45.28;100635.28;5015944;28;20128;-92
2023/08/02 11:24:20;;;;;;;0.20;0.20;;;;;;;28.47;45.12;100610.75;5019269;28;20070;-87
2023/08/02 11:27:06;;;;;;;0.20;0.20;;;;;;;28.42;44.93;100609.69;5028195;28;20021;-94